createdAt,value
2018-02-07T00:01:35.170Z,32.67
2018-02-07T00:04:04.878Z,31.02
2018-02-07T00:06:34.762Z,29.77
2018-02-07T00:09:03.949Z,32.53
2018-02-07T00:11:33.673Z,33.33
2018-02-07T00:14:03.530Z,29.73
2018-02-07T00:16:33.289Z,28.87
2018-02-07T00:19:03.003Z,30.15
2018-02-07T00:21:32.782Z,30.75
2018-02-07T00:24:02.494Z,32.22
2018-02-07T00:26:32.238Z,29.92
2018-02-07T00:29:02.070Z,31.73
2018-02-07T00:31:31.883Z,30.60
2018-02-07T00:34:01.585Z,31.48
2018-02-07T00:36:31.465Z,32.20
2018-02-07T00:39:01.210Z,30.90
2018-02-07T00:41:30.929Z,31.20
2018-02-07T00:44:00.646Z,31.90
2018-02-07T00:46:30.357Z,33.42
2018-02-07T00:49:00.096Z,30.08
2018-02-07T00:51:29.805Z,30.23
2018-02-07T00:53:59.645Z,30.20
2018-02-07T00:56:29.358Z,32.08
2018-02-07T00:58:59.082Z,30.33
2018-02-07T01:01:28.797Z,30.80
2018-02-07T01:03:58.521Z,28.85
2018-02-07T01:06:28.233Z,28.65
2018-02-07T01:08:57.961Z,29.30
2018-02-07T01:11:27.703Z,28.40
2018-02-07T01:13:57.425Z,30.15
2018-02-07T01:16:27.136Z,28.73
2018-02-07T01:18:56.888Z,30.15
2018-02-07T01:21:26.598Z,29.90
2018-02-07T01:23:56.321Z,29.37
2018-02-07T01:26:26.045Z,29.08
2018-02-07T01:28:55.766Z,27.92
2018-02-07T01:31:25.505Z,27.58
2018-02-07T01:33:55.224Z,28.87
2018-02-07T01:36:25.037Z,27.98
2018-02-07T01:38:54.769Z,26.48
2018-02-07T01:41:24.481Z,29.40
2018-02-07T01:43:54.218Z,30.77
2018-02-07T01:46:23.942Z,28.00
2018-02-07T01:48:53.658Z,29.65
2018-02-07T01:51:23.380Z,28.17
2018-02-07T01:53:53.173Z,29.37
2018-02-07T01:56:22.884Z,29.65
2018-02-07T01:58:52.681Z,29.33
2018-02-07T02:01:22.389Z,27.55
2018-02-07T02:03:52.112Z,27.20
2018-02-07T02:06:21.853Z,27.87
2018-02-07T02:08:51.567Z,27.23
2018-02-07T02:11:21.287Z,27.60
2018-02-07T02:13:51.001Z,28.35
2018-02-07T02:16:20.809Z,26.23
2018-02-07T02:18:50.522Z,28.50
2018-02-07T02:21:20.237Z,25.10
2018-02-07T02:23:49.988Z,28.70
2018-02-07T02:26:19.714Z,27.33
2018-02-07T02:28:49.450Z,28.15
2018-02-07T02:31:19.175Z,28.40
2018-02-07T02:33:48.900Z,29.75
2018-02-07T02:36:24.098Z,29.83
2018-02-07T02:38:53.821Z,28.52
2018-02-07T02:41:23.525Z,26.45
2018-02-07T02:43:53.354Z,25.85
2018-02-07T02:46:23.112Z,28.30
2018-02-07T02:48:52.998Z,27.55
2018-02-07T02:51:22.709Z,28.85
2018-02-07T02:53:52.445Z,28.20
2018-02-07T02:56:22.322Z,27.83
2018-02-07T02:58:52.038Z,28.38
2018-02-07T03:01:21.769Z,28.15
2018-02-07T03:03:51.482Z,26.75
2018-02-07T03:06:21.229Z,27.95
2018-02-07T03:08:50.979Z,26.73
2018-02-07T03:11:20.710Z,29.50
2018-02-07T03:13:50.404Z,28.00
2018-02-07T03:16:20.230Z,26.45
2018-02-07T03:18:49.940Z,27.33
2018-02-07T03:21:19.878Z,28.90
2018-02-07T03:23:49.609Z,28.65
2018-02-07T03:26:19.350Z,28.38
2018-02-07T03:28:49.102Z,26.83
2018-02-07T03:31:18.811Z,26.75
2018-02-07T03:33:48.554Z,28.45
2018-02-07T03:36:18.275Z,29.10
2018-02-07T03:38:48.109Z,27.83
2018-02-07T03:41:17.822Z,28.45
2018-02-07T03:43:47.609Z,27.75
2018-02-07T03:46:17.342Z,27.48
2018-02-07T03:48:47.069Z,26.58
2018-02-07T03:51:16.775Z,28.75
2018-02-07T03:53:46.501Z,30.10
2018-02-07T03:56:16.217Z,28.23
2018-02-07T03:58:45.921Z,26.00
2018-02-07T04:01:15.649Z,29.42
2018-02-07T04:03:45.383Z,27.20
2018-02-07T04:06:15.102Z,28.27
2018-02-07T04:08:44.805Z,28.62
2018-02-07T04:11:14.617Z,29.10
2018-02-07T04:13:44.429Z,28.67
2018-02-07T04:16:14.153Z,27.83
2018-02-07T04:18:43.886Z,30.42
2018-02-07T04:21:13.613Z,27.65
2018-02-07T04:23:43.638Z,29.98
2018-02-07T04:26:13.345Z,29.98
2018-02-07T04:28:43.082Z,29.35
2018-02-07T04:31:12.805Z,28.75
2018-02-07T04:33:42.540Z,29.37
2018-02-07T04:36:12.277Z,30.20
2018-02-07T04:38:42.009Z,27.35
2018-02-07T04:41:11.713Z,28.27
2018-02-07T04:43:41.438Z,29.08
2018-02-07T04:46:11.157Z,27.92
2018-02-07T04:48:40.881Z,29.30
2018-02-07T04:51:10.625Z,27.73
2018-02-07T04:53:40.529Z,28.58
2018-02-07T04:56:10.410Z,29.65
2018-02-07T04:58:40.131Z,32.58
2018-02-07T05:01:09.842Z,30.33
2018-02-07T05:03:39.561Z,31.60
2018-02-07T05:06:09.289Z,30.75
2018-02-07T05:08:38.989Z,28.62
2018-02-07T05:11:08.725Z,28.92
2018-02-07T05:13:38.534Z,31.17
2018-02-07T05:16:08.441Z,28.45
2018-02-07T05:18:38.203Z,29.25
2018-02-07T05:21:08.138Z,30.08
2018-02-07T05:23:37.865Z,31.27
2018-02-07T05:26:07.720Z,30.48
2018-02-07T05:28:37.433Z,29.77
2018-02-07T05:31:07.158Z,30.70
2018-02-07T05:33:36.922Z,29.50
2018-02-07T05:36:06.821Z,29.30
2018-02-07T05:38:36.543Z,29.10
2018-02-07T05:41:06.243Z,27.33
2018-02-07T05:43:35.970Z,29.60
2018-02-07T05:46:05.698Z,26.55
2018-02-07T05:48:35.445Z,28.87
2018-02-07T05:51:05.178Z,29.10
2018-02-07T05:53:34.913Z,27.40
2018-02-07T05:56:04.730Z,27.15
2018-02-07T05:58:34.622Z,30.02
2018-02-07T06:01:04.360Z,29.83
2018-02-07T06:03:34.270Z,29.37
2018-02-07T06:06:03.985Z,30.10
2018-02-07T06:08:33.697Z,28.83
2018-02-07T06:11:03.429Z,28.70
2018-02-07T06:13:33.141Z,27.80
2018-02-07T06:16:02.856Z,27.65
2018-02-07T06:18:32.629Z,28.38
2018-02-07T06:21:02.364Z,27.67
2018-02-07T06:23:32.072Z,29.92
2018-02-07T06:26:01.796Z,28.35
2018-02-07T06:28:31.508Z,29.83
2018-02-07T06:31:01.237Z,28.33
2018-02-07T06:33:30.603Z,31.48
2018-02-07T06:36:00.142Z,28.58
2018-02-07T06:38:29.877Z,31.37
2018-02-07T06:40:59.610Z,32.63
2018-02-07T06:43:29.310Z,32.30
2018-02-07T06:45:59.053Z,29.70
2018-02-07T06:48:28.842Z,30.23
2018-02-07T06:50:58.553Z,30.75
2018-02-07T06:53:28.278Z,32.70
2018-02-07T06:55:57.981Z,33.78
2018-02-07T06:58:27.385Z,32.42
2018-02-07T07:00:57.101Z,30.08
2018-02-07T07:03:26.831Z,28.12
2018-02-07T07:05:56.561Z,31.98
2018-02-07T07:08:26.281Z,30.58
2018-02-07T07:10:55.990Z,30.23
2018-02-07T07:13:25.748Z,28.42
2018-02-07T07:15:55.457Z,29.17
2018-02-07T07:18:25.181Z,30.55
2018-02-07T07:20:54.938Z,32.38
2018-02-07T07:23:24.332Z,31.17
2018-02-07T07:25:54.068Z,31.62
2018-02-07T07:28:23.786Z,28.23
2018-02-07T07:30:53.522Z,30.50
2018-02-07T07:33:23.247Z,32.25
2018-02-07T07:35:53.044Z,31.62
2018-02-07T07:38:22.762Z,30.85
2018-02-07T07:40:52.465Z,31.00
2018-02-07T07:43:22.194Z,29.45
2018-02-07T07:45:51.911Z,32.95
2018-02-07T07:48:21.629Z,32.33
2018-02-07T07:50:51.410Z,31.23
2018-02-07T07:53:21.129Z,29.23
2018-02-07T07:55:50.878Z,32.08
2018-02-07T07:58:20.773Z,30.65
2018-02-07T08:00:50.507Z,31.02
2018-02-07T08:03:20.213Z,32.65
2018-02-07T08:05:49.939Z,30.62
2018-02-07T08:08:19.643Z,31.37
2018-02-07T08:10:49.394Z,30.67
2018-02-07T08:13:19.165Z,32.50
2018-02-07T08:15:48.890Z,29.92
2018-02-07T08:18:18.610Z,33.45
2018-02-07T08:20:48.337Z,30.55
2018-02-07T08:23:18.066Z,29.75
2018-02-07T08:25:47.784Z,30.37
2018-02-07T08:28:17.572Z,30.70
2018-02-07T08:30:47.458Z,28.70
2018-02-07T08:33:17.204Z,29.60
2018-02-07T08:35:46.915Z,29.85
2018-02-07T08:38:16.637Z,28.20
2018-02-07T08:40:46.351Z,29.10
2018-02-07T08:43:16.086Z,30.65
2018-02-07T08:45:45.794Z,28.10
2018-02-07T08:48:15.525Z,28.50
2018-02-07T08:50:45.261Z,31.27
2018-02-07T08:53:15.033Z,32.35
2018-02-07T08:55:44.757Z,30.58
2018-02-07T08:58:14.472Z,29.45
2018-02-07T09:00:44.201Z,31.42
2018-02-07T09:03:13.955Z,30.60
2018-02-07T09:05:43.914Z,28.45
2018-02-07T09:08:13.633Z,31.27
2018-02-07T09:10:43.373Z,31.35
2018-02-07T09:13:13.105Z,32.00
2018-02-07T09:15:42.821Z,30.42
2018-02-07T09:18:12.545Z,29.60
2018-02-07T09:20:42.248Z,30.88
2018-02-07T09:23:12.001Z,32.03
2018-02-07T09:25:41.713Z,32.60
2018-02-07T09:28:11.465Z,31.42
2018-02-07T09:30:41.187Z,31.23
2018-02-07T09:33:10.909Z,32.45
2018-02-07T09:35:40.604Z,32.38
2018-02-07T09:38:10.329Z,31.90
2018-02-07T09:40:40.037Z,33.03
2018-02-07T09:43:09.786Z,35.38
2018-02-07T09:45:39.504Z,31.80
2018-02-07T09:48:09.234Z,31.50
2018-02-07T09:50:38.943Z,30.58
2018-02-07T09:53:08.693Z,29.63
2018-02-07T09:55:38.408Z,32.20
2018-02-07T09:58:08.177Z,32.72
2018-02-07T10:00:37.889Z,33.13
2018-02-07T10:03:07.609Z,33.50
2018-02-07T10:05:37.333Z,32.53
2018-02-07T10:08:07.074Z,33.10
2018-02-07T10:10:36.890Z,31.37
2018-02-07T10:13:06.633Z,32.85
2018-02-07T10:15:36.357Z,33.35
2018-02-07T10:18:06.081Z,34.50
2018-02-07T10:20:35.814Z,33.30
2018-02-07T10:23:05.594Z,34.15
2018-02-07T10:25:35.313Z,33.00
2018-02-07T10:28:05.011Z,33.10
2018-02-07T10:30:34.742Z,33.13
2018-02-07T10:33:04.451Z,32.75
2018-02-07T10:35:34.339Z,34.10
2018-02-07T10:38:04.078Z,34.25
2018-02-07T10:40:33.805Z,31.10
2018-02-07T10:43:03.542Z,35.88
2018-02-07T10:45:33.254Z,33.75
2018-02-07T10:48:02.977Z,35.63
2018-02-07T10:50:32.710Z,34.30
2018-02-07T10:53:02.438Z,34.13
2018-02-07T10:55:32.197Z,34.08
2018-02-07T10:58:01.925Z,34.20
2018-02-07T11:00:31.631Z,35.50
2018-02-07T11:03:01.369Z,35.67
2018-02-07T11:05:32.578Z,34.90
2018-02-07T11:08:02.305Z,35.15
2018-02-07T11:10:32.113Z,36.58
2018-02-07T11:13:01.856Z,35.58
2018-02-07T11:15:31.561Z,35.53
2018-02-07T11:18:01.306Z,34.30
2018-02-07T11:20:31.041Z,34.33
2018-02-07T11:23:00.745Z,37.00
2018-02-07T11:25:30.499Z,37.88
2018-02-07T11:28:00.201Z,35.83
2018-02-07T11:30:29.939Z,38.40
2018-02-07T11:32:59.639Z,35.75
2018-02-07T11:35:29.382Z,36.58
2018-02-07T11:37:58.974Z,34.58
2018-02-07T11:40:28.709Z,37.05
2018-02-07T11:42:58.421Z,35.80
2018-02-07T11:45:28.150Z,35.30
2018-02-07T11:47:57.875Z,35.35
2018-02-07T11:50:27.605Z,36.58
2018-02-07T11:52:57.330Z,35.92
2018-02-07T11:55:27.050Z,37.13
2018-02-07T11:57:56.752Z,35.53
2018-02-07T12:00:26.490Z,36.60
2018-02-07T12:02:56.233Z,34.20
2018-02-07T12:05:25.952Z,36.55
2018-02-07T12:07:55.689Z,36.47
2018-02-07T12:10:25.393Z,34.50
2018-02-07T12:12:55.143Z,35.88
2018-02-07T12:15:25.029Z,37.03
2018-02-07T12:17:54.842Z,35.90
2018-02-07T12:20:24.569Z,38.08
2018-02-07T12:22:54.280Z,35.65
2018-02-07T12:25:24.017Z,38.15
2018-02-07T12:27:53.753Z,38.10
2018-02-07T12:30:23.343Z,37.95
2018-02-07T12:32:53.048Z,36.42
2018-02-07T12:35:22.785Z,38.85
2018-02-07T12:37:52.509Z,39.65
2018-02-07T12:40:22.351Z,39.38
2018-02-07T12:42:52.099Z,36.20
2018-02-07T12:45:21.847Z,37.22
2018-02-07T12:47:51.562Z,37.50
2018-02-07T12:50:21.279Z,37.38
2018-02-07T12:52:50.986Z,36.55
2018-02-07T12:55:20.730Z,40.40
2018-02-07T12:57:50.467Z,39.35
2018-02-07T13:00:20.188Z,36.53
2018-02-07T13:02:49.931Z,36.50
2018-02-07T13:05:19.642Z,38.72
2018-02-07T13:07:49.377Z,38.60
2018-02-07T13:10:19.222Z,36.88
2018-02-07T13:12:48.958Z,38.17
2018-02-07T13:15:18.670Z,38.15
2018-02-07T13:17:48.502Z,37.78
2018-02-07T13:20:18.099Z,37.53
2018-02-07T13:22:47.826Z,37.67
2018-02-07T13:25:17.433Z,37.00
2018-02-07T13:27:47.169Z,39.55
2018-02-07T13:30:16.909Z,37.22
2018-02-07T13:32:46.617Z,34.80
2018-02-07T13:35:16.324Z,38.33
2018-02-07T13:37:46.049Z,34.40
2018-02-07T13:40:15.480Z,34.03
2018-02-07T13:42:45.243Z,37.67
2018-02-07T13:45:14.966Z,36.22
2018-02-07T13:47:44.703Z,35.65
2018-02-07T13:50:14.415Z,37.72
2018-02-07T13:52:43.883Z,40.00
2018-02-07T13:55:13.641Z,40.12
2018-02-07T13:57:43.105Z,37.13
2018-02-07T14:00:12.554Z,39.47
2018-02-07T14:02:42.255Z,35.72
2018-02-07T14:05:11.987Z,38.88
2018-02-07T14:07:41.702Z,38.10
2018-02-07T14:10:11.425Z,36.15
2018-02-07T14:12:40.907Z,35.10
2018-02-07T14:15:10.629Z,37.60
2018-02-07T14:17:40.351Z,37.08
2018-02-07T14:20:10.100Z,40.28
2018-02-07T14:22:39.534Z,37.67
2018-02-07T14:25:09.277Z,37.13
2018-02-07T14:27:39.005Z,36.28
2018-02-07T14:30:08.462Z,36.30
2018-02-07T14:32:38.167Z,34.70
2018-02-07T14:35:07.901Z,34.22
2018-02-07T14:37:37.666Z,36.30
2018-02-07T14:40:07.399Z,35.50
2018-02-07T14:42:37.121Z,36.17
2018-02-07T14:45:06.834Z,34.78
2018-02-07T14:47:36.538Z,34.92
2018-02-07T14:50:06.250Z,34.05
2018-02-07T14:52:35.966Z,35.63
2018-02-07T14:55:05.693Z,32.95
2018-02-07T14:57:35.423Z,34.22
2018-02-07T15:00:05.146Z,35.00
2018-02-07T15:02:34.988Z,33.72
2018-02-07T15:05:04.701Z,36.47
2018-02-07T15:07:34.422Z,35.22
2018-02-07T15:10:04.158Z,34.22
2018-02-07T15:12:33.900Z,32.88
2018-02-07T15:15:03.675Z,35.03
2018-02-07T15:17:33.560Z,35.53
2018-02-07T15:20:03.299Z,33.67
2018-02-07T15:22:33.045Z,32.47
2018-02-07T15:25:02.758Z,35.28
2018-02-07T15:27:32.494Z,34.15
2018-02-07T15:30:02.214Z,36.88
2018-02-07T15:32:31.921Z,33.72
2018-02-07T15:35:01.645Z,34.70
2018-02-07T15:37:31.359Z,33.25
2018-02-07T15:40:01.162Z,33.90
2018-02-07T15:42:30.878Z,34.08
2018-02-07T15:45:00.594Z,30.65
2018-02-07T15:47:30.305Z,33.03
2018-02-07T15:50:00.049Z,34.85
2018-02-07T15:52:29.987Z,32.30
2018-02-07T15:54:59.819Z,33.60
2018-02-07T15:57:29.546Z,31.30
2018-02-07T15:59:59.295Z,32.38
2018-02-07T16:02:29.018Z,29.15
2018-02-07T16:04:58.745Z,29.20
2018-02-07T16:07:28.473Z,31.83
2018-02-07T16:09:58.191Z,31.00
2018-02-07T16:12:27.914Z,29.58
2018-02-07T16:14:57.637Z,27.87
2018-02-07T16:17:27.370Z,30.37
2018-02-07T16:19:57.094Z,29.00
2018-02-07T16:22:26.849Z,29.77
2018-02-07T16:24:56.562Z,27.20
2018-02-07T16:27:26.299Z,28.23
2018-02-07T16:29:56.097Z,30.88
2018-02-07T16:32:25.825Z,30.50
2018-02-07T16:34:55.552Z,30.08
2018-02-07T16:37:25.274Z,27.87
2018-02-07T16:39:55.013Z,29.23
2018-02-07T16:42:24.725Z,28.85
2018-02-07T16:44:54.466Z,29.70
2018-02-07T16:47:24.194Z,28.38
2018-02-07T16:49:53.926Z,27.73
2018-02-07T16:52:23.629Z,27.70
2018-02-07T16:54:53.371Z,26.60
2018-02-07T16:57:23.118Z,29.33
2018-02-07T16:59:52.841Z,27.60
2018-02-07T17:02:22.558Z,28.35
2018-02-07T17:04:52.310Z,29.98
2018-02-07T17:07:22.049Z,29.92
2018-02-07T17:09:51.785Z,31.87
2018-02-07T17:12:21.513Z,29.33
2018-02-07T17:14:51.230Z,29.25
2018-02-07T17:17:21.015Z,31.27
2018-02-07T17:19:50.765Z,31.65
2018-02-07T17:22:20.645Z,31.30
2018-02-07T17:24:50.374Z,30.15
2018-02-07T17:27:20.113Z,31.20
2018-02-07T17:29:49.845Z,32.90
2018-02-07T17:32:19.726Z,31.20
2018-02-07T17:34:49.446Z,31.92
2018-02-07T17:37:19.048Z,30.98
2018-02-07T17:39:48.934Z,33.47
2018-02-07T17:42:18.673Z,31.77
2018-02-07T17:44:48.410Z,33.38
2018-02-07T17:47:18.145Z,30.50
2018-02-07T17:49:47.870Z,30.77
2018-02-07T17:52:17.626Z,29.70
2018-02-07T17:54:47.361Z,29.17
2018-02-07T17:57:17.062Z,30.08
2018-02-07T17:59:46.801Z,30.80
2018-02-07T18:02:16.551Z,32.78
2018-02-07T18:04:46.301Z,32.05
2018-02-07T18:07:16.058Z,31.40
2018-02-07T18:09:45.781Z,32.53
2018-02-07T18:12:15.503Z,32.95
2018-02-07T18:14:45.242Z,30.20
2018-02-07T18:17:15.133Z,34.63
2018-02-07T18:19:44.874Z,30.80
2018-02-07T18:22:14.620Z,31.98
2018-02-07T18:24:44.474Z,34.38
2018-02-07T18:27:14.211Z,32.50
2018-02-07T18:29:43.914Z,32.25
2018-02-07T18:32:13.649Z,34.58
2018-02-07T18:34:43.407Z,31.75
2018-02-07T18:37:13.142Z,32.85
2018-02-07T18:39:42.969Z,31.02
2018-02-07T18:42:12.694Z,33.15
2018-02-07T18:44:42.470Z,32.13
2018-02-07T18:47:12.212Z,33.70
2018-02-07T18:49:41.958Z,31.15
2018-02-07T18:52:11.736Z,33.30
2018-02-07T18:54:41.583Z,32.40
2018-02-07T18:57:11.460Z,32.65
2018-02-07T18:59:41.197Z,30.37
2018-02-07T19:02:10.965Z,32.45
2018-02-07T19:04:40.720Z,32.55
2018-02-07T19:07:10.464Z,29.92
2018-02-07T19:09:40.221Z,32.53
2018-02-07T19:12:09.953Z,33.13
2018-02-07T19:14:39.758Z,31.52
2018-02-07T19:17:09.501Z,32.80
2018-02-07T19:19:39.254Z,31.33
2018-02-07T19:22:08.981Z,31.05
2018-02-07T19:24:38.733Z,29.70
2018-02-07T19:27:08.490Z,32.40
2018-02-07T19:29:38.401Z,34.20
2018-02-07T19:32:08.150Z,33.70
2018-02-07T19:34:37.864Z,32.25
2018-02-07T19:37:07.593Z,33.53
2018-02-07T19:39:37.336Z,33.20
2018-02-07T19:42:07.189Z,34.22
2018-02-07T19:44:36.916Z,31.70
2018-02-07T19:47:06.650Z,34.75
2018-02-07T19:49:36.382Z,36.00
2018-02-07T19:52:06.133Z,34.85
2018-02-07T19:54:36.038Z,38.85
2018-02-07T19:57:05.778Z,37.42
2018-02-07T19:59:35.593Z,36.45
2018-02-07T20:02:05.350Z,35.95
2018-02-07T20:04:35.350Z,35.20
2018-02-07T20:07:05.299Z,34.83
2018-02-07T20:09:35.185Z,34.90
2018-02-07T20:12:04.945Z,32.97
2018-02-07T20:14:34.661Z,33.22
2018-02-07T20:17:04.398Z,36.72
2018-02-07T20:19:34.135Z,35.50
2018-02-07T20:22:03.861Z,35.97
2018-02-07T20:24:33.625Z,35.33
2018-02-07T20:27:03.373Z,33.55
2018-02-07T20:29:33.162Z,36.25
2018-02-07T20:32:02.876Z,35.72
2018-02-07T20:34:32.610Z,35.78
2018-02-07T20:37:02.449Z,34.38
2018-02-07T20:39:32.165Z,35.00
2018-02-07T20:42:01.929Z,35.38
2018-02-07T20:44:31.651Z,37.30
2018-02-07T20:47:01.402Z,32.60
2018-02-07T20:49:31.113Z,35.38
2018-02-07T20:52:00.855Z,32.95
2018-02-07T20:54:30.566Z,33.15
2018-02-07T20:57:00.320Z,31.67
2018-02-07T20:59:30.038Z,33.15
2018-02-07T21:01:59.942Z,30.90
2018-02-07T21:04:29.662Z,33.30
2018-02-07T21:06:59.401Z,34.13
2018-02-07T21:09:29.109Z,34.20
2018-02-07T21:11:58.885Z,32.38
2018-02-07T21:14:28.598Z,33.47
2018-02-07T21:16:58.334Z,33.25
2018-02-07T21:19:28.066Z,34.03
2018-02-07T21:21:57.871Z,32.72
2018-02-07T21:24:27.686Z,33.63
2018-02-07T21:26:57.408Z,31.20
2018-02-07T21:29:27.138Z,33.65
2018-02-07T21:31:56.866Z,33.35
2018-02-07T21:34:26.589Z,31.92
2018-02-07T21:36:56.313Z,31.60
2018-02-07T21:39:25.712Z,34.50
2018-02-07T21:41:55.531Z,30.60
2018-02-07T21:44:25.152Z,31.60
2018-02-07T21:46:54.989Z,32.33
2018-02-07T21:49:24.714Z,31.87
2018-02-07T21:51:54.469Z,33.83
2018-02-07T21:54:24.266Z,32.28
2018-02-07T21:56:53.986Z,31.87
2018-02-07T21:59:23.686Z,33.15
2018-02-07T22:01:53.421Z,32.38
2018-02-07T22:04:23.189Z,30.45
2018-02-07T22:06:52.897Z,29.40
2018-02-07T22:09:22.629Z,29.90
2018-02-07T22:11:52.369Z,29.95
2018-02-07T22:14:22.114Z,32.40
2018-02-07T22:16:51.847Z,33.85
2018-02-07T22:19:21.742Z,31.12
2018-02-07T22:21:51.658Z,32.90
2018-02-07T22:24:21.381Z,33.50
2018-02-07T22:26:51.205Z,32.90
2018-02-07T22:29:20.914Z,35.60
2018-02-07T22:31:50.641Z,32.22
2018-02-07T22:34:20.354Z,32.75
2018-02-07T22:36:50.070Z,35.30
2018-02-07T22:39:19.793Z,33.88
2018-02-07T22:41:49.520Z,31.90
2018-02-07T22:44:19.234Z,32.53
2018-02-07T22:46:48.954Z,33.90
2018-02-07T22:49:18.685Z,32.45
2018-02-07T22:51:48.395Z,31.67
2018-02-07T22:54:18.121Z,35.53
2018-02-07T22:56:47.840Z,30.48
2018-02-07T22:59:17.648Z,32.95
2018-02-07T23:01:47.357Z,32.88
2018-02-07T23:04:17.084Z,32.97
2018-02-07T23:06:46.794Z,33.92
2018-02-07T23:09:16.710Z,31.17
2018-02-07T23:11:46.441Z,31.75
2018-02-07T23:14:16.265Z,32.42
2018-02-07T23:16:46.006Z,34.05
2018-02-07T23:19:15.721Z,34.42
2018-02-07T23:21:45.466Z,32.83
2018-02-07T23:24:15.170Z,34.47
2018-02-07T23:26:44.929Z,31.98
2018-02-07T23:29:14.645Z,33.80
2018-02-07T23:31:44.513Z,33.88
2018-02-07T23:34:14.217Z,33.25
2018-02-07T23:36:43.953Z,32.45
2018-02-07T23:39:13.665Z,34.85
2018-02-07T23:41:43.367Z,34.92
2018-02-07T23:44:13.077Z,30.98
2018-02-07T23:46:42.790Z,33.00
2018-02-07T23:49:12.517Z,34.25
2018-02-07T23:51:42.269Z,32.90
2018-02-07T23:54:12.010Z,32.10
2018-02-07T23:56:41.746Z,33.65
2018-02-07T23:59:11.545Z,34.03
